Time;durP1;ratioP1;P1;durP2;ratioP2;P2;SDS_P1;SDS_P2;PMS_P1;PMS_P2;Temp;Humidity;BMP_temperature;BMP_pressure;BME280_temperature;BME280_humidity;BME280_pressure;Samples;Min_cycle;Max_cycle;Signal;HPM_P1;HPM_P2
2024/01/11 00:00:41;;;;;;;39.47;14.90;;;-3.80;99.90;;;;;;5052233;28;20485;-75
2024/01/11 00:03:06;;;;;;;29.58;13.20;;;-3.80;99.90;;;;;;5035833;28;20025;-76
2024/01/11 00:05:32;;;;;;;34.28;14.77;;;-3.80;99.90;;;;;;5046833;28;20136;-76
2024/01/11 00:07:58;;;;;;;30.27;12.85;;;-3.80;99.90;;;;;;5034038;28;20039;-76
2024/01/11 00:10:24;;;;;;;33.58;13.05;;;-3.80;99.90;;;;;;5015233;28;20500;-76
2024/01/11 00:12:49;;;;;;;32.50;14.10;;;-3.80;99.90;;;;;;5035634;28;20214;-76
2024/01/11 00:15:15;;;;;;;32.25;13.20;;;-3.80;99.90;;;;;;5035992;28;20040;-76
2024/01/11 00:17:41;;;;;;;38.67;14.80;;;-3.80;99.90;;;;;;5053139;28;20427;-76
2024/01/11 00:20:07;;;;;;;34.08;14.43;;;-3.80;99.90;;;;;;5053710;28;20547;-76
2024/01/11 00:22:32;;;;;;;32.35;13.75;;;-3.80;99.90;;;;;;5034933;28;20468;-76
2024/01/11 00:24:58;;;;;;;35.17;13.45;;;-3.80;99.90;;;;;;5041662;28;20049;-76
2024/01/11 00:27:27;;;;;;;28.77;12.25;;;-3.80;99.90;;;;;;5035048;28;20396;-76
2024/01/11 00:29:53;;;;;;;37.90;13.82;;;-3.90;99.90;;;;;;5048752;28;20026;-76
2024/01/11 00:32:21;;;;;;;30.98;13.10;;;-3.80;99.90;;;;;;5033173;28;20028;-76
2024/01/11 00:34:47;;;;;;;27.10;12.52;;;-3.90;99.90;;;;;;5051400;28;20548;-76
2024/01/11 00:37:12;;;;;;;33.95;13.68;;;-3.90;99.90;;;;;;5027553;28;20037;-76
2024/01/11 00:39:39;;;;;;;35.47;14.05;;;-3.90;99.90;;;;;;5044546;28;20478;-76
2024/01/11 00:42:05;;;;;;;30.73;12.73;;;-3.90;99.90;;;;;;5033321;28;20040;-76
2024/01/11 00:44:30;;;;;;;36.67;13.65;;;-3.90;99.90;;;;;;5039842;28;20025;-76
2024/01/11 00:46:56;;;;;;;37.13;14.07;;;-3.90;99.90;;;;;;5052854;28;20065;-76
2024/01/11 00:49:22;;;;;;;38.35;15.68;;;-4.00;99.90;;;;;;5052861;28;20538;-76
2024/01/11 00:51:47;;;;;;;34.70;14.25;;;-4.00;99.90;;;;;;5065408;28;20083;-75
2024/01/11 00:54:13;;;;;;;34.53;13.30;;;-4.00;99.90;;;;;;5054052;28;20442;-76
2024/01/11 00:56:39;;;;;;;32.40;12.75;;;-4.00;99.90;;;;;;5038647;28;20083;-76
2024/01/11 00:59:05;;;;;;;37.67;13.00;;;-4.10;99.90;;;;;;5041263;28;20370;-76
2024/01/11 01:01:30;;;;;;;35.08;13.48;;;-4.00;99.90;;;;;;5033665;28;20041;-76
2024/01/11 01:03:56;;;;;;;34.78;14.40;;;-4.00;99.90;;;;;;5052824;28;20548;-76
2024/01/11 01:06:22;;;;;;;32.60;13.77;;;-4.10;99.90;;;;;;5051524;28;20037;-76
2024/01/11 01:08:47;;;;;;;35.25;14.18;;;-4.10;99.90;;;;;;5036680;28;20026;-76
2024/01/11 01:11:18;;;;;;;28.90;12.50;;;-4.10;99.90;;;;;;5031991;28;20363;-75
2024/01/11 01:13:47;;;;;;;34.17;15.20;;;-4.10;99.90;;;;;;5033241;28;20541;-75
2024/01/11 01:16:13;;;;;;;37.05;14.07;;;-4.10;99.90;;;;;;5051505;28;20040;-76
2024/01/11 01:18:41;;;;;;;31.48;13.45;;;-4.10;99.90;;;;;;5051857;28;20497;-76
2024/01/11 01:21:07;;;;;;;34.78;14.35;;;-4.10;99.90;;;;;;5050967;28;20040;-76
2024/01/11 01:23:32;;;;;;;32.83;13.90;;;-4.10;99.90;;;;;;5051924;28;20049;-76
2024/01/11 01:25:58;;;;;;;34.97;14.02;;;-4.10;99.90;;;;;;5033167;28;20052;-76
2024/01/11 01:28:23;;;;;;;32.55;14.02;;;-4.10;99.90;;;;;;5051791;28;20025;-75
2024/01/11 01:30:49;;;;;;;34.00;14.20;;;-4.10;99.90;;;;;;5049498;28;20100;-76
2024/01/11 01:33:15;;;;;;;29.17;12.10;;;-4.10;99.90;;;;;;5052013;28;20021;-76
2024/01/11 01:35:40;;;;;;;33.63;12.40;;;-4.20;99.90;;;;;;5048437;28;20033;-76
2024/01/11 01:38:06;;;;;;;30.60;11.77;;;-4.20;99.90;;;;;;5032433;28;20043;-76
2024/01/11 01:40:31;;;;;;;31.05;12.40;;;-4.20;99.90;;;;;;5026757;28;20033;-76
2024/01/11 01:43:00;;;;;;;36.88;13.85;;;-4.30;99.90;;;;;;5019393;28;20111;-76
2024/01/11 01:45:27;;;;;;;33.10;12.77;;;-4.30;99.90;;;;;;5039418;28;20033;-76
2024/01/11 01:47:53;;;;;;;31.05;12.80;;;-4.30;99.90;;;;;;5052072;28;20033;-76
2024/01/11 01:50:20;;;;;;;33.83;12.05;;;-4.40;99.90;;;;;;5050410;28;20065;-76
2024/01/11 01:52:46;;;;;;;28.83;11.70;;;-4.40;99.90;;;;;;5052277;28;20021;-76
2024/01/11 01:55:16;;;;;;;35.15;12.75;;;-4.50;99.90;;;;;;5050715;28;20522;-76
2024/01/11 01:57:44;;;;;;;33.20;13.75;;;-4.60;99.90;;;;;;5049602;28;20032;-75
2024/01/11 02:00:11;;;;;;;37.22;14.18;;;-4.60;99.90;;;;;;5051173;28;20029;-75
2024/01/11 02:02:42;;;;;;;30.25;12.48;;;-4.70;99.90;;;;;;5051290;28;20024;-76
2024/01/11 02:05:09;;;;;;;30.45;12.90;;;-4.70;99.90;;;;;;5051798;28;20381;-76
2024/01/11 02:07:35;;;;;;;27.75;12.23;;;-4.60;99.90;;;;;;5033507;28;20033;-76
2024/01/11 02:10:02;;;;;;;31.83;13.10;;;-4.60;99.90;;;;;;5046274;28;20027;-76
2024/01/11 02:12:30;;;;;;;29.98;11.43;;;-4.60;99.90;;;;;;5025867;28;20041;-76
2024/01/11 02:14:56;;;;;;;30.77;13.35;;;-4.60;99.90;;;;;;5033983;28;20028;-76
2024/01/11 02:17:24;;;;;;;30.13;11.40;;;-4.60;99.90;;;;;;5050216;28;20024;-76
2024/01/11 02:19:50;;;;;;;27.65;11.15;;;-4.70;99.90;;;;;;5057819;28;20033;-76
2024/01/11 02:22:24;;;;;;;31.17;13.77;;;-4.70;99.90;;;;;;5049282;28;20041;-75
2024/01/11 02:24:49;;;;;;;32.78;11.95;;;-4.70;99.90;;;;;;5041805;28;20095;-76
2024/01/11 02:27:15;;;;;;;33.15;12.68;;;-4.80;99.90;;;;;;5054830;28;20424;-76
2024/01/11 02:29:42;;;;;;;31.35;11.63;;;-4.80;99.90;;;;;;5057099;28;20059;-75
2024/01/11 02:32:11;;;;;;;32.55;12.05;;;-4.80;99.90;;;;;;5056733;28;20025;-75
2024/01/11 02:34:37;;;;;;;28.92;10.65;;;-4.80;99.90;;;;;;5033444;28;20029;-74
2024/01/11 02:37:05;;;;;;;26.30;10.00;;;-4.90;99.90;;;;;;5037760;28;20101;-74
2024/01/11 02:39:33;;;;;;;29.83;11.68;;;-4.90;99.90;;;;;;5050050;28;20059;-74
2024/01/11 02:42:02;;;;;;;27.27;11.38;;;-4.90;99.90;;;;;;5025895;28;20032;-75
2024/01/11 02:44:28;;;;;;;32.20;11.85;;;-4.90;99.90;;;;;;5045060;28;20021;-75
2024/01/11 02:46:56;;;;;;;27.40;10.57;;;-4.90;99.90;;;;;;5048884;28;20031;-77
2024/01/11 02:49:22;;;;;;;27.50;11.25;;;-4.90;99.90;;;;;;5058881;28;20021;-76
2024/01/11 02:51:48;;;;;;;31.65;12.25;;;-4.90;99.90;;;;;;5030515;28;20105;-77
2024/01/11 02:54:13;;;;;;;28.20;10.98;;;-4.90;99.90;;;;;;5025972;28;20041;-76
2024/01/11 02:56:39;;;;;;;25.05;10.90;;;-4.90;99.90;;;;;;5045413;28;20025;-77
2024/01/11 02:59:05;;;;;;;30.63;9.63;;;-4.90;99.90;;;;;;5055289;28;20040;-77
2024/01/11 03:01:30;;;;;;;31.17;12.70;;;-4.90;99.90;;;;;;5050985;28;20029;-76
2024/01/11 03:03:56;;;;;;;26.60;11.48;;;-4.90;99.90;;;;;;5053775;28;20056;-77
2024/01/11 03:06:22;;;;;;;23.10;10.57;;;-5.00;99.90;;;;;;5042995;28;20049;-77
2024/01/11 03:08:49;;;;;;;34.03;11.88;;;-5.00;99.90;;;;;;5065657;28;20013;-77
2024/01/11 03:11:16;;;;;;;28.17;11.63;;;-5.10;99.90;;;;;;5058927;28;20108;-77
2024/01/11 03:13:42;;;;;;;29.23;10.95;;;-5.10;99.90;;;;;;5055176;28;20384;-77
2024/01/11 03:16:07;;;;;;;31.92;11.15;;;-5.20;99.90;;;;;;5057852;28;20035;-76
2024/01/11 03:18:33;;;;;;;27.73;12.00;;;-5.30;99.90;;;;;;5036404;28;20127;-77
2024/01/11 03:20:59;;;;;;;27.88;10.40;;;-5.30;99.90;;;;;;5055239;28;20115;-77
2024/01/11 03:23:25;;;;;;;28.38;10.75;;;-5.40;99.90;;;;;;5046497;28;20048;-77
2024/01/11 03:25:51;;;;;;;30.45;10.57;;;-5.50;99.90;;;;;;5051551;28;20052;-77
2024/01/11 03:28:17;;;;;;;25.27;9.85;;;-5.50;99.90;;;;;;5045307;28;20031;-77
2024/01/11 03:30:49;;;;;;;31.67;11.50;;;-5.60;99.90;;;;;;5060650;28;20094;-76
2024/01/11 03:33:15;;;;;;;30.73;10.85;;;-5.60;99.90;;;;;;5058777;28;20077;-77
2024/01/11 03:35:43;;;;;;;28.40;10.45;;;-5.70;99.90;;;;;;5076773;28;20029;-77
2024/01/11 03:38:09;;;;;;;29.60;10.57;;;-5.80;99.90;;;;;;5046697;28;20064;-77
2024/01/11 03:40:35;;;;;;;26.55;10.77;;;-5.80;99.90;;;;;;5063109;28;20025;-76
2024/01/11 03:43:00;;;;;;;27.52;11.75;;;-5.90;99.90;;;;;;5061325;28;20036;-77
2024/01/11 03:45:27;;;;;;;29.42;9.70;;;-5.90;99.90;;;;;;5022542;28;20040;-77
2024/01/11 03:47:53;;;;;;;29.83;11.52;;;-5.90;99.90;;;;;;5052417;28;20440;-76
2024/01/11 03:50:19;;;;;;;26.23;11.10;;;-6.00;99.90;;;;;;5054609;28;20037;-76
2024/01/11 03:52:45;;;;;;;26.83;10.15;;;-6.00;99.90;;;;;;5058690;28;20031;-76
2024/01/11 03:55:10;;;;;;;32.53;11.93;;;-5.90;99.90;;;;;;5057789;28;20116;-76
2024/01/11 03:57:36;;;;;;;29.75;11.15;;;-5.90;99.90;;;;;;5057235;28;20135;-76
2024/01/11 04:00:05;;;;;;;29.52;10.85;;;-5.80;99.90;;;;;;5051276;28;20060;-76
2024/01/11 04:02:31;;;;;;;25.45;10.07;;;-5.80;99.90;;;;;;5042182;28;20497;-76
2024/01/11 04:04:58;;;;;;;28.83;12.38;;;-5.80;99.90;;;;;;5056316;28;20167;-76
2024/01/11 04:07:24;;;;;;;26.70;11.23;;;-5.80;99.90;;;;;;5038330;28;20052;-76
2024/01/11 04:09:52;;;;;;;24.73;10.15;;;-5.80;99.90;;;;;;5053578;28;20492;-77
2024/01/11 04:12:18;;;;;;;22.55;9.23;;;-5.80;99.90;;;;;;5040590;28;20476;-76
2024/01/11 04:14:45;;;;;;;30.58;11.40;;;-5.80;99.90;;;;;;5046241;28;20042;-76
2024/01/11 04:17:12;;;;;;;24.95;10.45;;;-5.80;99.90;;;;;;5041094;28;20030;-76
2024/01/11 04:19:39;;;;;;;30.42;10.68;;;-5.90;99.90;;;;;;5036833;28;20044;-76
2024/01/11 04:22:04;;;;;;;29.25;11.65;;;-6.00;99.90;;;;;;5049666;28;20053;-76
2024/01/11 04:24:30;;;;;;;30.02;11.55;;;-6.00;99.90;;;;;;5049056;28;20033;-76
2024/01/11 04:26:55;;;;;;;27.75;10.15;;;-6.00;99.90;;;;;;5049416;28;20036;-76
2024/01/11 04:29:27;;;;;;;26.27;9.30;;;-6.10;99.90;;;;;;5061974;28;20029;-77
2024/01/11 04:31:53;;;;;;;29.08;10.45;;;-6.10;99.90;;;;;;5048359;28;20309;-76
2024/01/11 04:34:18;;;;;;;30.08;10.98;;;-6.10;99.90;;;;;;5035140;28;20028;-76
2024/01/11 04:36:44;;;;;;;27.73;10.57;;;-6.10;99.90;;;;;;5047974;28;20032;-77
2024/01/11 04:39:11;;;;;;;26.90;9.63;;;-6.20;99.90;;;;;;5041009;28;20030;-77
2024/01/11 04:41:37;;;;;;;31.27;11.20;;;-6.10;99.90;;;;;;5052240;28;20022;-76
2024/01/11 04:44:05;;;;;;;26.58;9.57;;;-6.20;99.90;;;;;;5056206;28;20117;-76
2024/01/11 04:46:33;;;;;;;24.42;9.45;;;-6.10;99.90;;;;;;5051232;28;20045;-76
2024/01/11 04:49:02;;;;;;;24.17;8.85;;;-6.20;99.90;;;;;;5055682;28;20033;-76
2024/01/11 04:51:28;;;;;;;22.20;8.90;;;-6.20;99.90;;;;;;5044132;28;20440;-77
2024/01/11 04:53:53;;;;;;;26.48;10.02;;;-6.20;99.90;;;;;;5055670;28;20021;-76
2024/01/11 04:56:19;;;;;;;28.77;10.40;;;-6.10;99.90;;;;;;5039194;28;20052;-76
2024/01/11 04:58:45;;;;;;;28.63;10.85;;;-6.10;99.90;;;;;;5048743;28;20029;-77
2024/01/11 05:01:15;;;;;;;28.88;9.30;;;-6.20;99.90;;;;;;5054662;28;20040;-77
2024/01/11 05:03:45;;;;;;;23.73;10.27;;;-6.10;99.90;;;;;;5056742;28;20021;-77
2024/01/11 05:06:21;;;;;;;30.13;11.07;;;-6.10;99.90;;;;;;5039912;28;20033;-76
2024/01/11 05:08:49;;;;;;;32.63;11.32;;;-6.00;99.90;;;;;;5039823;28;20548;-76
2024/01/11 05:11:18;;;;;;;27.95;11.18;;;-6.00;99.90;;;;;;5044372;28;20099;-76
2024/01/11 05:13:47;;;;;;;27.58;11.70;;;-6.00;99.90;;;;;;5056913;28;20049;-77
2024/01/11 05:16:30;;;;;;;28.40;10.77;;;-6.00;99.90;;;;;;5048817;28;20032;-77
2024/01/11 05:18:57;;;;;;;34.60;11.57;;;-6.10;99.90;;;;;;5040982;28;20033;-76
2024/01/11 05:21:25;;;;;;;31.25;12.05;;;-6.10;99.90;;;;;;5059016;28;20025;-77
2024/01/11 05:23:52;;;;;;;27.85;11.50;;;-6.20;99.90;;;;;;5063992;28;20053;-77
2024/01/11 05:26:20;;;;;;;28.08;10.23;;;-6.20;99.90;;;;;;5058126;28;20033;-77
2024/01/11 05:28:46;;;;;;;29.70;10.60;;;-6.20;99.90;;;;;;5053441;28;20028;-76
2024/01/11 05:31:14;;;;;;;27.95;11.30;;;-6.30;99.90;;;;;;5046148;28;20037;-76
2024/01/11 05:33:40;;;;;;;30.02;11.32;;;-6.30;99.90;;;;;;5045233;28;20086;-76
2024/01/11 05:36:10;;;;;;;26.30;10.95;;;-6.30;99.90;;;;;;5052765;28;20025;-77
2024/01/11 05:38:40;;;;;;;28.80;10.77;;;-6.40;99.90;;;;;;5034092;28;20045;-76
2024/01/11 05:41:06;;;;;;;22.83;9.20;;;-6.40;99.90;;;;;;5034397;28;20098;-76
2024/01/11 05:43:31;;;;;;;25.63;10.88;;;-6.40;99.90;;;;;;5059590;28;20088;-76
2024/01/11 05:45:58;;;;;;;22.15;8.93;;;-6.40;99.90;;;;;;5047743;28;20029;-77
2024/01/11 05:48:26;;;;;;;27.15;11.20;;;-6.40;99.90;;;;;;5048494;28;20319;-77
2024/01/11 05:50:53;;;;;;;28.42;11.20;;;-6.40;99.90;;;;;;5025862;28;20421;-77
2024/01/11 05:53:20;;;;;;;26.70;9.95;;;-6.50;99.90;;;;;;5046720;28;20032;-76
2024/01/11 05:55:47;;;;;;;23.05;10.02;;;-6.50;99.90;;;;;;5051901;28;20373;-76
2024/01/11 05:58:12;;;;;;;30.02;10.63;;;-6.50;99.90;;;;;;5053656;28;20033;-77
2024/01/11 06:00:40;;;;;;;32.25;11.15;;;-6.50;99.90;;;;;;5052087;28;20024;-76
2024/01/11 06:03:06;;;;;;;28.83;11.50;;;-6.50;99.90;;;;;;5053234;28;20060;-79
2024/01/11 06:05:31;;;;;;;29.23;11.82;;;-6.50;99.90;;;;;;5039228;28;20384;-76
2024/01/11 06:07:57;;;;;;;29.17;12.85;;;-6.50;99.90;;;;;;5046580;28;20040;-77
2024/01/11 06:10:22;;;;;;;29.77;11.13;;;-6.50;99.90;;;;;;5036183;28;20123;-77
2024/01/11 06:12:49;;;;;;;25.63;11.30;;;-6.50;99.90;;;;;;5052688;28;20036;-76
2024/01/11 06:15:15;;;;;;;29.35;11.23;;;-6.60;99.90;;;;;;5053556;28;20078;-76
2024/01/11 06:17:43;;;;;;;23.20;8.93;;;-6.70;99.90;;;;;;5042987;28;20112;-76
2024/01/11 06:20:10;;;;;;;24.52;10.00;;;-6.70;99.90;;;;;;5040878;28;20085;-77
2024/01/11 06:22:36;;;;;;;25.73;9.95;;;-6.80;99.90;;;;;;5035490;28;20045;-77
2024/01/11 06:25:01;;;;;;;32.70;11.25;;;-6.80;99.90;;;;;;5038297;28;20040;-76
2024/01/11 06:27:27;;;;;;;27.58;11.80;;;-6.80;99.90;;;;;;5054011;28;20078;-77
2024/01/11 06:29:52;;;;;;;28.65;11.43;;;-6.80;99.90;;;;;;5050488;28;20473;-77
2024/01/11 06:32:18;;;;;;;31.73;10.70;;;-6.80;99.90;;;;;;5054637;28;20033;-77
2024/01/11 06:34:45;;;;;;;27.25;10.55;;;-6.90;99.90;;;;;;5037093;28;20051;-77
2024/01/11 06:37:12;;;;;;;29.60;11.15;;;-6.90;99.90;;;;;;5037987;28;20064;-77
2024/01/11 06:39:37;;;;;;;33.25;12.40;;;-6.90;99.90;;;;;;5045254;28;20078;-78
2024/01/11 06:42:05;;;;;;;29.67;11.02;;;-7.00;99.90;;;;;;5057166;28;20505;-77
2024/01/11 06:44:31;;;;;;;35.90;13.98;;;-7.00;99.90;;;;;;5025563;28;20048;-76
2024/01/11 06:46:57;;;;;;;37.20;12.93;;;-7.00;99.90;;;;;;5034480;28;20489;-77
2024/01/11 06:49:22;;;;;;;39.78;14.38;;;-6.90;99.90;;;;;;5047939;28;20032;-77
2024/01/11 06:51:48;;;;;;;33.47;11.90;;;-6.90;99.90;;;;;;5049138;28;20029;-76
2024/01/11 06:54:14;;;;;;;37.47;12.18;;;-6.80;99.90;;;;;;5051643;28;20096;-76
2024/01/11 06:56:40;;;;;;;32.63;12.98;;;-6.70;99.90;;;;;;5054640;28;20114;-76
2024/01/11 06:59:07;;;;;;;35.35;12.95;;;-6.70;99.90;;;;;;5039045;28;20476;-76
2024/01/11 07:01:33;;;;;;;39.30;13.63;;;-6.60;99.90;;;;;;5039110;28;20079;-76
2024/01/11 07:03:59;;;;;;;33.33;13.65;;;-6.50;99.90;;;;;;5058450;28;20033;-76
2024/01/11 07:06:27;;;;;;;37.70;14.32;;;-6.50;99.90;;;;;;5037434;28;20052;-76
2024/01/11 07:08:55;;;;;;;31.40;11.20;;;-6.50;99.90;;;;;;5041132;28;20029;-75
2024/01/11 07:11:21;;;;;;;32.70;13.05;;;-6.50;99.90;;;;;;5047513;28;20074;-76
2024/01/11 07:13:46;;;;;;;34.25;13.93;;;-6.50;99.90;;;;;;5058833;28;20017;-76
2024/01/11 07:16:12;;;;;;;33.10;13.10;;;-6.50;99.90;;;;;;5053839;28;20396;-76
2024/01/11 07:18:38;;;;;;;37.80;13.68;;;-6.40;99.90;;;;;;5053440;28;20060;-76
2024/01/11 07:21:03;;;;;;;31.70;12.90;;;-6.40;99.90;;;;;;5053124;28;20417;-76
2024/01/11 07:23:29;;;;;;;37.53;14.40;;;-6.40;99.90;;;;;;5048602;28;20066;-76
2024/01/11 07:25:55;;;;;;;33.47;13.63;;;-6.40;99.90;;;;;;5052539;28;20091;-76
2024/01/11 07:28:25;;;;;;;32.33;13.43;;;-6.40;99.90;;;;;;5056012;28;20040;-76
2024/01/11 07:30:52;;;;;;;35.85;13.65;;;-6.40;99.90;;;;;;5048905;28;20057;-76
2024/01/11 07:33:18;;;;;;;34.03;13.75;;;-6.30;99.90;;;;;;5037860;28;20029;-76
2024/01/11 07:35:43;;;;;;;39.45;14.65;;;-6.30;99.90;;;;;;5035042;28;20024;-76
2024/01/11 07:38:09;;;;;;;34.22;14.50;;;-6.30;99.90;;;;;;5053885;28;20029;-76
2024/01/11 07:40:34;;;;;;;35.47;15.70;;;-6.30;99.90;;;;;;5052110;28;20116;-76
2024/01/11 07:43:00;;;;;;;35.88;15.18;;;-6.30;99.90;;;;;;5047328;28;20029;-76
2024/01/11 07:45:25;;;;;;;39.90;14.88;;;-6.30;99.90;;;;;;5050126;28;20040;-76
2024/01/11 07:47:51;;;;;;;36.38;14.43;;;-6.30;99.90;;;;;;5049245;28;20108;-76
2024/01/11 07:50:17;;;;;;;36.50;15.65;;;-6.30;99.90;;;;;;5046923;28;20025;-76
2024/01/11 07:52:42;;;;;;;33.88;14.57;;;-6.30;99.90;;;;;;5047785;28;20385;-76
2024/01/11 07:55:10;;;;;;;41.70;15.40;;;-6.30;99.90;;;;;;5050016;28;20572;-76
2024/01/11 07:57:39;;;;;;;34.67;14.40;;;-6.30;99.90;;;;;;5046773;28;20112;-77
2024/01/11 08:00:08;;;;;;;37.70;14.60;;;-6.30;99.90;;;;;;5043461;28;20033;-76
2024/01/11 08:02:35;;;;;;;33.45;13.68;;;-6.30;99.90;;;;;;5045127;28;20024;-76
2024/01/11 08:05:01;;;;;;;33.33;13.32;;;-6.40;99.90;;;;;;5041725;28;20037;-75
2024/01/11 08:07:27;;;;;;;39.63;15.25;;;-6.30;99.90;;;;;;5043864;28;20032;-75
2024/01/11 08:09:53;;;;;;;44.15;17.83;;;-6.30;99.90;;;;;;5041527;28;20037;-75
2024/01/11 08:12:19;;;;;;;38.13;15.57;;;-6.30;99.90;;;;;;5050385;28;20095;-77
2024/01/11 08:14:46;;;;;;;36.92;15.30;;;-6.30;99.90;;;;;;5054342;28;20017;-77
2024/01/11 08:17:13;;;;;;;41.47;17.80;;;-6.20;99.90;;;;;;5051093;28;20029;-77
2024/01/11 08:19:39;;;;;;;40.97;16.15;;;-6.20;99.90;;;;;;5054077;28;20025;-76
2024/01/11 08:22:05;;;;;;;40.13;16.50;;;-6.10;99.90;;;;;;5009746;28;1234439;-77
2024/01/11 08:24:31;;;;;;;37.65;16.08;;;-6.00;99.90;;;;;;5030292;28;20292;-77
2024/01/11 08:26:57;;;;;;;41.45;16.85;;;-6.00;99.90;;;;;;5055899;28;20025;-77
2024/01/11 08:29:25;;;;;;;42.65;17.48;;;-6.00;99.90;;;;;;5039452;28;20035;-77
2024/01/11 08:31:51;;;;;;;36.47;16.58;;;-5.90;99.90;;;;;;5036442;28;20052;-77
2024/01/11 08:34:17;;;;;;;41.90;16.48;;;-5.90;99.90;;;;;;5051481;28;20057;-77
2024/01/11 08:36:43;;;;;;;46.45;18.08;;;-5.80;99.90;;;;;;5049824;28;20037;-77
2024/01/11 08:39:11;;;;;;;48.00;16.70;;;-5.80;99.90;;;;;;5052493;28;20060;-77
2024/01/11 08:41:40;;;;;;;45.80;17.88;;;-5.70;99.90;;;;;;5025117;28;20040;-77
2024/01/11 08:44:05;;;;;;;41.40;17.70;;;-5.60;99.90;;;;;;5059996;28;20029;-77
2024/01/11 08:46:35;;;;;;;42.97;17.48;;;-5.60;99.90;;;;;;5039101;28;20041;-77
2024/01/11 08:49:03;;;;;;;43.28;18.55;;;-5.50;99.90;;;;;;5050023;28;20021;-76
2024/01/11 08:51:29;;;;;;;44.97;18.75;;;-5.40;99.90;;;;;;5049714;28;20120;-77
2024/01/11 08:53:56;;;;;;;44.10;17.40;;;-5.30;99.90;;;;;;5057457;28;20029;-76
2024/01/11 08:56:22;;;;;;;47.42;19.27;;;-5.30;99.90;;;;;;5027568;28;20025;-77
2024/01/11 08:58:48;;;;;;;48.70;20.42;;;-5.20;99.90;;;;;;5056079;28;20025;-77
2024/01/11 09:01:15;;;;;;;43.63;19.92;;;-5.10;99.90;;;;;;5042227;28;20116;-77
2024/01/11 09:03:41;;;;;;;47.92;20.38;;;-5.00;99.90;;;;;;5059708;28;20511;-77
2024/01/11 09:06:06;;;;;;;50.67;21.88;;;-5.00;99.90;;;;;;5038188;28;20053;-77
2024/01/11 09:08:32;;;;;;;46.58;20.27;;;-4.90;99.90;;;;;;5051687;28;20025;-77
2024/01/11 09:11:00;;;;;;;47.47;20.60;;;-4.80;99.90;;;;;;5046637;28;20484;-77
2024/01/11 09:13:28;;;;;;;46.97;21.73;;;-4.70;99.90;;;;;;5041851;28;20476;-76
2024/01/11 09:15:54;;;;;;;47.58;21.63;;;-4.60;99.90;;;;;;5047830;28;20400;-77
2024/01/11 09:18:20;;;;;;;45.13;21.95;;;-4.60;99.90;;;;;;5049085;28;20017;-77
2024/01/11 09:20:47;;;;;;;46.75;20.95;;;-4.50;99.90;;;;;;5053938;28;20025;-77
2024/01/11 09:23:13;;;;;;;47.63;20.17;;;-4.40;99.90;;;;;;5053611;28;20040;-77
2024/01/11 09:25:39;;;;;;;47.13;19.15;;;-4.30;99.90;;;;;;5052293;28;20114;-78
2024/01/11 09:28:08;;;;;;;45.10;20.85;;;-4.20;99.90;;;;;;5051380;28;20022;-77
2024/01/11 09:30:34;;;;;;;50.58;22.77;;;-4.20;99.90;;;;;;5039681;28;20056;-77
2024/01/11 09:32:59;;;;;;;51.20;20.38;;;-4.10;99.90;;;;;;5054371;28;20508;-77
2024/01/11 09:35:25;;;;;;;43.80;19.75;;;-4.10;99.90;;;;;;5053132;28;20052;-77
2024/01/11 09:37:51;;;;;;;43.10;19.55;;;-4.00;99.90;;;;;;5058082;28;20021;-77
2024/01/11 09:40:18;;;;;;;46.85;19.40;;;-3.90;99.90;;;;;;5051223;28;20059;-77
2024/01/11 09:42:44;;;;;;;46.00;20.55;;;-3.90;99.90;;;;;;5046724;28;20477;-77
2024/01/11 09:45:15;;;;;;;42.83;19.80;;;-3.80;99.90;;;;;;5038047;28;20079;-76
2024/01/11 09:47:42;;;;;;;49.80;21.87;;;-3.70;99.90;;;;;;5038320;28;20025;-76
2024/01/11 09:50:08;;;;;;;45.10;19.23;;;-3.60;99.90;;;;;;5053386;28;20794;-77
2024/01/11 09:52:34;;;;;;;45.17;20.50;;;-3.50;99.90;;;;;;5046519;28;20100;-77
2024/01/11 09:55:00;;;;;;;44.03;20.20;;;-3.50;99.90;;;;;;5033672;28;20113;-76
2024/01/11 09:57:32;;;;;;;45.72;19.35;;;-3.40;99.90;;;;;;5046826;28;20078;-76
2024/01/11 09:59:58;;;;;;;47.60;21.90;;;-3.30;99.90;;;;;;5050977;28;20012;-76
2024/01/11 10:02:28;;;;;;;50.78;21.92;;;-3.20;99.90;;;;;;5048754;28;20036;-77
2024/01/11 10:04:53;;;;;;;46.33;20.52;;;-3.20;99.90;;;;;;5044246;28;20124;-76
2024/01/11 10:07:22;;;;;;;46.33;21.25;;;-3.10;99.90;;;;;;5029797;28;20057;-76
2024/01/11 10:09:48;;;;;;;49.63;23.88;;;-3.00;99.90;;;;;;5048450;28;20071;-76
2024/01/11 10:12:14;;;;;;;53.40;22.98;;;-3.00;99.90;;;;;;5045688;28;20063;-77
2024/01/11 10:14:39;;;;;;;49.88;22.17;;;-2.90;99.90;;;;;;5050423;28;20067;-77
2024/01/11 10:17:06;;;;;;;49.90;23.70;;;-2.80;99.90;;;;;;5046507;28;20032;-76
2024/01/11 10:19:32;;;;;;;48.03;22.77;;;-2.80;99.90;;;;;;5050259;28;20036;-78
2024/01/11 10:22:01;;;;;;;56.30;24.60;;;-2.70;99.90;;;;;;5031990;28;20021;-76
2024/01/11 10:24:26;;;;;;;50.42;22.08;;;-2.60;99.90;;;;;;5046321;28;20104;-76
2024/01/11 10:27:03;;;;;;;48.20;20.90;;;-2.60;99.90;;;;;;5050442;28;20508;-76
2024/01/11 10:29:35;;;;;;;50.70;22.83;;;-2.50;99.90;;;;;;5050370;28;20025;-76
2024/01/11 10:32:00;;;;;;;47.35;21.27;;;-2.50;99.90;;;;;;5046579;28;20033;-77
2024/01/11 10:34:26;;;;;;;48.80;20.90;;;-2.40;99.90;;;;;;5044566;28;20385;-77
2024/01/11 10:36:52;;;;;;;51.90;22.67;;;-2.30;99.90;;;;;;5037229;28;20029;-76
2024/01/11 10:39:24;;;;;;;49.58;23.42;;;-2.30;99.90;;;;;;5033130;28;20507;-76
2024/01/11 10:41:52;;;;;;;48.22;22.25;;;-2.20;99.90;;;;;;5051015;28;20036;-77
2024/01/11 10:44:21;;;;;;;56.03;22.90;;;-2.20;99.90;;;;;;5050023;28;20116;-77
2024/01/11 10:46:55;;;;;;;48.78;21.40;;;-2.10;99.90;;;;;;5029059;28;20411;-77
2024/01/11 10:49:25;;;;;;;49.75;21.67;;;-2.10;99.90;;;;;;5043498;28;20040;-77
2024/01/11 10:52:00;;;;;;;49.63;21.10;;;-2.00;99.90;;;;;;5051189;28;20020;-77
2024/01/11 10:54:27;;;;;;;48.40;22.05;;;-1.90;99.90;;;;;;5045306;28;20029;-77
2024/01/11 10:56:54;;;;;;;48.47;21.92;;;-1.90;99.90;;;;;;5040666;28;20127;-77
2024/01/11 10:59:24;;;;;;;50.63;22.98;;;-1.90;99.90;;;;;;5027968;28;20139;-76
2024/01/11 11:01:56;;;;;;;44.97;19.38;;;-1.80;99.90;;;;;;5052283;28;20092;-77
2024/01/11 11:04:22;;;;;;;44.72;19.92;;;-1.80;99.90;;;;;;5049975;28;20025;-77
2024/01/11 11:06:54;;;;;;;48.38;21.52;;;-1.70;99.90;;;;;;5049636;28;20033;-77
2024/01/11 11:09:21;;;;;;;45.38;21.20;;;-1.60;99.90;;;;;;5051901;28;20029;-77
2024/01/11 11:11:47;;;;;;;44.00;19.17;;;-1.60;99.90;;;;;;5052218;28;20029;-77
2024/01/11 11:14:15;;;;;;;44.92;20.05;;;-1.50;99.90;;;;;;5050757;28;20052;-77
2024/01/11 11:16:41;;;;;;;43.60;19.77;;;-1.40;99.90;;;;;;5037041;28;20089;-76
2024/01/11 11:19:07;;;;;;;44.22;20.25;;;-1.40;99.90;;;;;;5032940;28;20033;-77
2024/01/11 11:21:41;;;;;;;40.00;19.15;;;-1.30;99.90;;;;;;5042506;28;20086;-77
2024/01/11 11:24:07;;;;;;;46.05;19.25;;;-1.20;99.90;;;;;;5049904;28;20408;-77
2024/01/11 11:26:32;;;;;;;44.17;19.10;;;-1.20;99.90;;;;;;5035691;28;20037;-77
2024/01/11 11:28:58;;;;;;;38.85;18.40;;;-1.20;99.90;;;;;;5039904;28;20056;-78
2024/01/11 11:31:36;;;;;;;46.63;20.33;;;-1.20;99.90;;;;;;5039830;28;20033;-78
2024/01/11 11:34:04;;;;;;;40.55;18.75;;;-1.10;99.90;;;;;;5030100;28;20028;-78
2024/01/11 11:36:32;;;;;;;40.38;19.13;;;-1.10;99.90;;;;;;5048665;28;20026;-78
2024/01/11 11:39:00;;;;;;;38.17;18.52;;;-1.00;99.90;;;;;;5047020;28;20025;-78
2024/01/11 11:41:27;;;;;;;40.40;17.92;;;-1.00;99.90;;;;;;5033747;28;20067;-78
2024/01/11 11:43:53;;;;;;;33.72;16.77;;;-1.00;99.90;;;;;;5053456;28;20036;-77
2024/01/11 11:46:19;;;;;;;35.58;15.82;;;-1.00;99.90;;;;;;5053316;28;20033;-78
2024/01/11 11:48:51;;;;;;;31.95;12.70;;;-0.90;99.90;;;;;;5046564;28;20147;-78
2024/01/11 11:51:20;;;;;;;31.95;13.45;;;-0.80;99.90;;;;;;5053084;28;20060;-77
2024/01/11 11:53:50;;;;;;;31.15;12.85;;;-0.80;99.90;;;;;;5029882;28;20473;-78
2024/01/11 11:56:20;;;;;;;34.30;12.65;;;-0.80;99.90;;;;;;5050726;28;20025;-78
2024/01/11 11:58:46;;;;;;;26.23;11.40;;;-0.70;99.90;;;;;;5047743;28;20025;-77
2024/01/11 12:01:14;;;;;;;27.98;11.65;;;-0.60;99.90;;;;;;5054212;28;20028;-76
2024/01/11 12:03:50;;;;;;;28.63;11.27;;;-0.40;99.90;;;;;;5053678;28;20029;-77
2024/01/11 12:06:18;;;;;;;26.20;9.77;;;-0.30;99.90;;;;;;5046683;28;20035;-77
2024/01/11 12:08:45;;;;;;;22.55;8.90;;;-0.20;99.90;;;;;;5041507;28;20028;-77
2024/01/11 12:11:21;;;;;;;19.83;7.20;;;-0.30;99.90;;;;;;5040346;28;20029;-77
2024/01/11 12:13:48;;;;;;;26.48;9.70;;;-0.40;99.90;;;;;;5044009;28;20079;-78
2024/01/11 12:16:14;;;;;;;29.17;10.30;;;-0.50;99.90;;;;;;5034831;28;20367;-78
2024/01/11 12:18:41;;;;;;;29.15;9.68;;;-0.60;99.90;;;;;;5032170;28;20027;-77
2024/01/11 12:21:07;;;;;;;34.28;11.65;;;-0.60;99.90;;;;;;5054055;28;20440;-77
2024/01/11 12:23:34;;;;;;;29.55;10.23;;;-0.60;99.90;;;;;;5053803;28;20512;-77
2024/01/11 12:26:07;;;;;;;31.42;11.13;;;-0.60;99.90;;;;;;5020109;28;20073;-77